Cheb, Czech Republic
Current Conditions -  °F | °C
As of 5:20 PM on Tuesday 21 Oct 2014 (Local Time) from EDQM Reporting Station
Light Rain Light Rain  
Wind Chill: 52°   Ceiling: Unl
Heat Index: 52°   Visibility: 6mi
Dew Point: 45°   Wind: 18mph
Humidity: 76%   Direction: 220°SW
Pressure: 29.65"   Gusts: 30mph
Location:  50.08°N, 12.35°E
Report Text: EDQM 211520Z 22016G26KT 9999 -RA FEW029 SCT042 11/07 Q1004
Loading
Personal Weather Stations






























Interactive Weather Map
Tropical Storm Tracking
New forecast layout! Learn more

10-Day Weather Forecast

Advertisements
Track Severe Weather on mobile